createdAt,value
2023-05-09T00:00:52.946Z,14.45
2023-05-09T00:01:52.858Z,14.45
2023-05-09T00:02:52.752Z,14.42
2023-05-09T00:03:52.709Z,14.42
2023-05-09T00:04:52.753Z,14.39
2023-05-09T00:05:52.627Z,14.37
2023-05-09T00:06:52.663Z,14.37
2023-05-09T00:07:53.895Z,14.35
2023-05-09T00:08:52.476Z,14.32
2023-05-09T00:09:52.327Z,14.28
2023-05-09T00:10:52.300Z,14.33
2023-05-09T00:11:52.195Z,14.36
2023-05-09T00:12:52.208Z,14.36
2023-05-09T00:13:52.043Z,14.36
2023-05-09T00:14:52.015Z,14.36
2023-05-09T00:15:51.952Z,14.36
2023-05-09T00:16:51.911Z,14.36
2023-05-09T00:17:51.923Z,14.33
2023-05-09T00:18:51.774Z,14.33
2023-05-09T00:19:51.733Z,14.36
2023-05-09T00:20:51.650Z,14.36
2023-05-09T00:21:51.548Z,14.37
2023-05-09T00:22:52.403Z,14.36
2023-05-09T00:23:51.486Z,14.36
2023-05-09T00:24:51.355Z,14.33
2023-05-09T00:25:51.312Z,14.33
2023-05-09T00:26:51.326Z,14.32
2023-05-09T00:27:51.179Z,14.27
2023-05-09T00:28:51.114Z,14.25
2023-05-09T00:29:51.070Z,14.21
2023-05-09T00:30:51.043Z,14.17
2023-05-09T00:31:50.949Z,14.09
2023-05-09T00:32:50.918Z,14.06
2023-05-09T00:33:50.802Z,13.95
2023-05-09T00:34:50.710Z,13.84
2023-05-09T00:35:50.740Z,13.73
2023-05-09T00:36:50.672Z,13.67
2023-05-09T00:37:50.560Z,13.60
2023-05-09T00:38:50.542Z,13.55
2023-05-09T00:39:50.488Z,13.48
2023-05-09T00:40:50.372Z,13.44
2023-05-09T00:41:50.334Z,13.41
2023-05-09T00:42:50.262Z,13.36
2023-05-09T00:43:50.180Z,13.29
2023-05-09T00:44:50.114Z,13.23
2023-05-09T00:45:50.083Z,13.22
2023-05-09T00:46:50.056Z,13.15
2023-05-09T00:47:49.979Z,13.14
2023-05-09T00:48:49.896Z,13.11
2023-05-09T00:49:49.784Z,13.10
2023-05-09T00:50:49.776Z,13.11
2023-05-09T00:51:49.720Z,13.11
2023-05-09T00:52:49.671Z,13.10
2023-05-09T00:53:49.527Z,13.12
2023-05-09T00:54:49.496Z,13.17
2023-05-09T00:55:49.423Z,13.15
2023-05-09T00:56:49.403Z,13.14
2023-05-09T00:57:49.348Z,13.11
2023-05-09T00:58:50.098Z,13.08
2023-05-09T00:59:49.187Z,13.07
2023-05-09T01:00:49.101Z,13.03
2023-05-09T01:01:49.112Z,13.01
2023-05-09T01:02:49.114Z,13.00
2023-05-09T01:03:48.977Z,13.04
2023-05-09T01:04:48.913Z,13.05
2023-05-09T01:05:48.807Z,13.05
2023-05-09T01:06:48.779Z,13.08
2023-05-09T01:07:48.700Z,13.07
2023-05-09T01:08:48.596Z,13.04
2023-05-09T01:09:48.531Z,13.01
2023-05-09T01:10:48.692Z,12.97
2023-05-09T01:11:48.432Z,12.97
2023-05-09T01:12:48.410Z,12.95
2023-05-09T01:13:48.341Z,12.93
2023-05-09T01:14:48.856Z,12.95
2023-05-09T01:15:48.223Z,12.92
2023-05-09T01:16:48.208Z,12.92
2023-05-09T01:17:48.219Z,12.87
2023-05-09T01:18:47.991Z,12.83
2023-05-09T01:19:47.986Z,12.78
2023-05-09T01:20:47.849Z,12.74
2023-05-09T01:21:47.831Z,12.68
2023-05-09T01:22:47.744Z,12.68
2023-05-09T01:23:47.653Z,12.64
2023-05-09T01:24:48.088Z,12.62
2023-05-09T01:25:47.577Z,12.59
2023-05-09T01:26:47.542Z,12.56
2023-05-09T01:27:47.480Z,12.53
2023-05-09T01:28:47.400Z,12.53
2023-05-09T01:29:47.310Z,12.52
2023-05-09T01:30:47.352Z,12.50
2023-05-09T01:31:47.239Z,12.50
2023-05-09T01:32:47.130Z,12.52
2023-05-09T01:33:47.024Z,12.53
2023-05-09T01:34:47.022Z,12.52
2023-05-09T01:35:46.920Z,12.50
2023-05-09T01:36:46.950Z,12.54
2023-05-09T01:37:46.861Z,12.60
2023-05-09T01:38:46.776Z,12.62
2023-05-09T01:39:46.720Z,12.62
2023-05-09T01:40:46.651Z,12.57
2023-05-09T01:41:46.676Z,12.62
2023-05-09T01:42:46.540Z,12.62
2023-05-09T01:43:46.456Z,12.65
2023-05-09T01:44:46.403Z,12.65
2023-05-09T01:45:46.554Z,12.67
2023-05-09T01:46:46.302Z,12.67
2023-05-09T01:47:46.209Z,12.71
2023-05-09T01:48:46.897Z,12.70
2023-05-09T01:49:46.050Z,12.67
2023-05-09T01:50:46.099Z,12.67
2023-05-09T01:51:45.953Z,12.64
2023-05-09T01:52:45.931Z,12.60
2023-05-09T01:53:45.801Z,12.60
2023-05-09T01:54:45.776Z,12.59
2023-05-09T01:55:45.731Z,12.52
2023-05-09T01:56:45.609Z,12.47
2023-05-09T01:57:45.586Z,12.46
2023-05-09T01:58:45.493Z,12.41
2023-05-09T01:59:45.439Z,12.37
2023-05-09T02:00:45.913Z,12.32
2023-05-09T02:01:45.298Z,12.23
2023-05-09T02:02:45.395Z,12.17
2023-05-09T02:03:45.197Z,12.13
2023-05-09T02:04:45.125Z,12.07
2023-05-09T02:05:45.092Z,12.07
2023-05-09T02:06:44.989Z,12.07
2023-05-09T02:07:45.902Z,12.07
2023-05-09T02:08:44.840Z,12.05
2023-05-09T02:09:44.807Z,12.05
2023-05-09T02:10:44.713Z,12.05
2023-05-09T02:11:45.546Z,12.04
2023-05-09T02:12:44.669Z,12.10
2023-05-09T02:13:44.604Z,12.12
2023-05-09T02:14:44.484Z,12.16
2023-05-09T02:15:44.554Z,12.16
2023-05-09T02:16:44.399Z,12.14
2023-05-09T02:17:44.276Z,12.14
2023-05-09T02:18:44.221Z,12.16
2023-05-09T02:19:44.193Z,12.14
2023-05-09T02:20:44.164Z,12.14
2023-05-09T02:21:44.078Z,12.16
2023-05-09T02:22:44.024Z,12.14
2023-05-09T02:23:43.908Z,12.14
2023-05-09T02:24:43.906Z,12.10
2023-05-09T02:25:43.846Z,12.10
2023-05-09T02:26:43.755Z,12.05
2023-05-09T02:27:43.689Z,12.05
2023-05-09T02:28:43.600Z,12.07
2023-05-09T02:29:43.567Z,12.12
2023-05-09T02:30:43.521Z,12.13
2023-05-09T02:31:43.502Z,12.10
2023-05-09T02:32:43.440Z,12.05
2023-05-09T02:33:43.274Z,12.01
2023-05-09T02:34:43.264Z,11.95
2023-05-09T02:35:43.127Z,11.95
2023-05-09T02:36:43.129Z,11.91
2023-05-09T02:37:43.077Z,11.88
2023-05-09T02:38:43.038Z,11.90
2023-05-09T02:39:42.877Z,11.85
2023-05-09T02:40:42.850Z,11.85
2023-05-09T02:41:42.794Z,11.85
2023-05-09T02:42:42.750Z,11.86
2023-05-09T02:43:42.657Z,11.88
2023-05-09T02:44:42.600Z,11.85
2023-05-09T02:45:42.624Z,11.86
2023-05-09T02:46:42.492Z,11.90
2023-05-09T02:47:42.551Z,11.95
2023-05-09T02:48:42.371Z,11.91
2023-05-09T02:49:42.273Z,11.90
2023-05-09T02:50:42.216Z,11.90
2023-05-09T02:51:42.244Z,11.91
2023-05-09T02:52:42.125Z,11.90
2023-05-09T02:53:42.036Z,11.86
2023-05-09T02:54:41.965Z,11.85
2023-05-09T02:55:41.972Z,11.83
2023-05-09T02:56:41.922Z,11.79
2023-05-09T02:57:41.964Z,11.76
2023-05-09T02:58:41.684Z,11.72
2023-05-09T02:59:41.673Z,11.64
2023-05-09T03:00:41.581Z,11.57
2023-05-09T03:01:41.547Z,11.49
2023-05-09T03:02:41.558Z,11.43
2023-05-09T03:03:41.765Z,11.35
2023-05-09T03:04:41.354Z,11.28
2023-05-09T03:05:41.257Z,11.22
2023-05-09T03:06:41.236Z,11.19
2023-05-09T03:07:41.125Z,11.19
2023-05-09T03:08:41.060Z,11.17
2023-05-09T03:09:41.365Z,11.15
2023-05-09T03:10:40.885Z,11.14
2023-05-09T03:11:40.890Z,11.14
2023-05-09T03:12:42.112Z,11.11
2023-05-09T03:13:40.682Z,11.11
2023-05-09T03:14:40.665Z,11.10
2023-05-09T03:15:40.644Z,11.10
2023-05-09T03:16:40.550Z,11.09
2023-05-09T03:17:40.577Z,11.07
2023-05-09T03:18:40.443Z,11.06
2023-05-09T03:19:40.361Z,11.04
2023-05-09T03:20:40.298Z,11.04
2023-05-09T03:21:40.249Z,11.04
2023-05-09T03:22:40.180Z,11.07
2023-05-09T03:23:40.145Z,11.10
2023-05-09T03:24:40.605Z,11.14
2023-05-09T03:25:39.981Z,11.15
2023-05-09T03:26:39.862Z,11.14
2023-05-09T03:27:39.890Z,11.14
2023-05-09T03:28:39.951Z,11.11
2023-05-09T03:29:39.734Z,11.09
2023-05-09T03:30:39.639Z,11.07
2023-05-09T03:31:39.689Z,11.06
2023-05-09T03:32:39.572Z,11.06
2023-05-09T03:33:39.610Z,11.09
2023-05-09T03:34:39.426Z,11.07
2023-05-09T03:35:39.300Z,11.04
2023-05-09T03:36:39.294Z,11.02
2023-05-09T03:37:39.195Z,11.00
2023-05-09T03:38:39.162Z,11.03
2023-05-09T03:39:39.169Z,11.02
2023-05-09T03:40:39.017Z,11.04
2023-05-09T03:41:38.961Z,11.04
2023-05-09T03:42:38.865Z,11.02
2023-05-09T03:43:38.853Z,11.00
2023-05-09T03:44:38.803Z,11.00
2023-05-09T03:45:38.709Z,10.99
2023-05-09T03:46:38.682Z,10.94
2023-05-09T03:47:39.599Z,10.91
2023-05-09T03:48:39.365Z,10.88
2023-05-09T03:49:38.564Z,10.85
2023-05-09T03:50:39.073Z,10.85
2023-05-09T03:51:40.666Z,10.82
2023-05-09T03:52:38.291Z,10.82
2023-05-09T03:53:38.197Z,10.82
2023-05-09T03:54:40.542Z,10.81
2023-05-09T03:55:38.132Z,10.82
2023-05-09T03:56:38.038Z,10.85
2023-05-09T03:57:37.970Z,10.82
2023-05-09T03:58:37.888Z,10.82
2023-05-09T03:59:37.850Z,10.84
2023-05-09T04:00:37.760Z,10.84
2023-05-09T04:01:40.024Z,10.84
2023-05-09T04:02:37.799Z,10.85
2023-05-09T04:03:37.820Z,10.84
2023-05-09T04:04:37.499Z,10.82
2023-05-09T04:05:37.503Z,10.84
2023-05-09T04:06:37.374Z,10.85
2023-05-09T04:07:37.445Z,10.84
2023-05-09T04:08:37.272Z,10.84
2023-05-09T04:09:37.263Z,10.85
2023-05-09T04:10:37.124Z,10.85
2023-05-09T04:11:37.092Z,10.84
2023-05-09T04:12:37.032Z,10.85
2023-05-09T04:13:36.990Z,10.88
2023-05-09T04:14:36.932Z,10.86
2023-05-09T04:15:36.818Z,10.92
2023-05-09T04:16:36.818Z,10.92
2023-05-09T04:17:36.700Z,10.91
2023-05-09T04:18:36.653Z,10.91
2023-05-09T04:19:36.622Z,10.91
2023-05-09T04:20:36.556Z,10.89
2023-05-09T04:21:36.479Z,10.86
2023-05-09T04:22:36.436Z,10.86
2023-05-09T04:23:36.299Z,10.85
2023-05-09T04:24:36.248Z,10.84
2023-05-09T04:25:36.187Z,10.82
2023-05-09T04:26:36.130Z,10.81
2023-05-09T04:27:36.056Z,10.81
2023-05-09T04:28:36.890Z,10.82
2023-05-09T04:29:35.956Z,10.81
2023-05-09T04:30:35.924Z,10.82
2023-05-09T04:31:35.863Z,10.82
2023-05-09T04:32:35.893Z,10.85
2023-05-09T04:33:35.678Z,10.88
2023-05-09T04:34:35.653Z,10.86
2023-05-09T04:35:35.560Z,10.86
2023-05-09T04:36:35.655Z,10.86
2023-05-09T04:37:35.452Z,10.86
2023-05-09T04:38:35.358Z,10.86
2023-05-09T04:39:35.324Z,10.88
2023-05-09T04:40:35.407Z,10.86
2023-05-09T04:41:35.239Z,10.84
2023-05-09T04:42:35.152Z,10.85
2023-05-09T04:43:35.073Z,10.86
2023-05-09T04:44:35.009Z,10.86
2023-05-09T04:45:34.949Z,10.88
2023-05-09T04:46:34.999Z,10.91
2023-05-09T04:47:34.820Z,10.92
2023-05-09T04:48:34.726Z,10.96
2023-05-09T04:49:34.754Z,10.96
2023-05-09T04:50:35.542Z,11.00
2023-05-09T04:51:34.544Z,11.03
2023-05-09T04:52:34.537Z,11.04
2023-05-09T04:53:34.429Z,11.06
2023-05-09T04:54:34.351Z,11.10
2023-05-09T04:55:34.327Z,11.15
2023-05-09T04:56:34.260Z,11.18
2023-05-09T04:57:34.145Z,11.21
2023-05-09T04:58:34.140Z,11.25
2023-05-09T04:59:34.072Z,11.28
2023-05-09T05:00:33.971Z,11.35
2023-05-09T05:01:34.031Z,11.40
2023-05-09T05:02:33.902Z,11.42
2023-05-09T05:03:33.785Z,11.52
2023-05-09T05:04:33.837Z,11.55
2023-05-09T05:05:36.025Z,11.62
2023-05-09T05:06:33.650Z,11.67
2023-05-09T05:07:33.553Z,11.73
2023-05-09T05:08:33.469Z,11.80
2023-05-09T05:09:33.433Z,11.86
2023-05-09T05:10:33.428Z,11.96
2023-05-09T05:11:33.279Z,12.04
2023-05-09T05:12:33.248Z,12.13
2023-05-09T05:13:33.302Z,12.19
2023-05-09T05:14:33.101Z,12.27
2023-05-09T05:15:33.034Z,12.34
2023-05-09T05:16:33.060Z,12.39
2023-05-09T05:17:32.955Z,12.45
2023-05-09T05:18:32.897Z,12.52
2023-05-09T05:19:32.868Z,12.57
2023-05-09T05:20:32.744Z,12.64
2023-05-09T05:21:32.654Z,12.71
2023-05-09T05:22:32.868Z,12.78
2023-05-09T05:23:32.528Z,12.85
2023-05-09T05:24:32.516Z,12.92
2023-05-09T05:25:33.340Z,13.03
2023-05-09T05:26:32.331Z,13.36
2023-05-09T05:27:32.279Z,13.88
2023-05-09T05:28:32.204Z,14.36
2023-05-09T05:29:32.192Z,14.75
2023-05-09T05:30:34.188Z,15.06
2023-05-09T05:31:32.126Z,15.43
2023-05-09T05:32:32.592Z,15.82
2023-05-09T05:33:31.933Z,16.14
2023-05-09T05:34:31.861Z,16.42
2023-05-09T05:35:31.797Z,16.64
2023-05-09T05:36:32.585Z,16.89
2023-05-09T05:37:31.642Z,17.19
2023-05-09T05:38:31.616Z,17.38
2023-05-09T05:39:33.794Z,17.59
2023-05-09T05:40:32.580Z,17.77
2023-05-09T05:41:33.449Z,17.74
2023-05-09T05:42:35.040Z,17.86
2023-05-09T05:43:32.780Z,18.11
2023-05-09T05:44:31.233Z,18.32
2023-05-09T05:45:32.144Z,18.44
2023-05-09T05:46:31.118Z,18.63
2023-05-09T05:47:31.059Z,18.91
2023-05-09T05:48:30.989Z,19.18
2023-05-09T05:49:30.903Z,19.28
2023-05-09T05:50:30.829Z,19.32
2023-05-09T05:51:30.873Z,19.31
2023-05-09T05:52:30.717Z,19.18
2023-05-09T05:53:32.625Z,19.11
2023-05-09T05:54:30.570Z,19.16
2023-05-09T05:55:30.519Z,19.22
2023-05-09T05:56:30.478Z,19.16
2023-05-09T05:57:30.458Z,19.19
2023-05-09T05:58:30.590Z,19.16
2023-05-09T05:59:30.341Z,19.08
2023-05-09T06:00:30.236Z,19.02
2023-05-09T06:01:30.145Z,18.95
2023-05-09T06:02:30.230Z,19.02
2023-05-09T06:03:30.079Z,18.99
2023-05-09T06:04:30.057Z,18.52
2023-05-09T06:05:29.901Z,18.07
2023-05-09T06:06:29.838Z,18.15
2023-05-09T06:07:29.784Z,18.32
2023-05-09T06:08:29.799Z,18.63
2023-05-09T06:09:29.770Z,18.91
2023-05-09T06:10:29.697Z,19.08
2023-05-09T06:11:29.555Z,19.14
2023-05-09T06:12:29.487Z,19.26
2023-05-09T06:13:29.572Z,19.46
2023-05-09T06:14:29.413Z,19.61
2023-05-09T06:15:29.330Z,19.76
2023-05-09T06:16:29.241Z,20.02
2023-05-09T06:17:29.415Z,20.21
2023-05-09T06:18:29.177Z,20.31
2023-05-09T06:19:29.024Z,20.38
2023-05-09T06:20:29.008Z,20.55
2023-05-09T06:21:28.896Z,20.51
2023-05-09T06:22:30.292Z,20.39
2023-05-09T06:23:28.895Z,20.43
2023-05-09T06:24:35.583Z,20.38
2023-05-09T06:25:28.759Z,20.32
2023-05-09T06:26:28.631Z,20.14
2023-05-09T06:27:28.622Z,20.06
2023-05-09T06:28:28.489Z,20.05
2023-05-09T06:29:28.611Z,20.06
2023-05-09T06:30:28.394Z,20.18
2023-05-09T06:31:28.919Z,20.20
2023-05-09T06:32:28.227Z,20.39
2023-05-09T06:33:28.215Z,20.57
2023-05-09T06:34:28.112Z,20.59
2023-05-09T06:35:28.066Z,20.89
2023-05-09T06:36:28.015Z,21.42
2023-05-09T06:37:27.940Z,21.83
2023-05-09T06:38:27.868Z,22.05
2023-05-09T06:39:27.796Z,22.09
2023-05-09T06:40:27.950Z,22.17
2023-05-09T06:41:27.777Z,21.99
2023-05-09T06:42:27.637Z,22.12
2023-05-09T06:43:27.540Z,22.10
2023-05-09T06:44:27.533Z,21.99
2023-05-09T06:45:27.722Z,21.79
2023-05-09T06:46:27.389Z,21.72
2023-05-09T06:47:27.480Z,21.61
2023-05-09T06:48:27.284Z,21.47
2023-05-09T06:49:27.193Z,21.29
2023-05-09T06:50:27.213Z,21.29
2023-05-09T06:51:27.102Z,21.28
2023-05-09T06:52:27.050Z,20.95
2023-05-09T06:53:27.018Z,20.89
2023-05-09T06:54:26.919Z,21.01
2023-05-09T06:55:26.866Z,20.76
2023-05-09T06:56:26.834Z,20.55
2023-05-09T06:57:26.743Z,20.82
2023-05-09T06:58:26.660Z,21.09
2023-05-09T06:59:26.707Z,21.24
2023-05-09T07:00:26.585Z,21.35
2023-05-09T07:01:26.512Z,21.59
2023-05-09T07:02:26.467Z,21.75
2023-05-09T07:03:26.388Z,22.02
2023-05-09T07:04:26.289Z,22.25
2023-05-09T07:05:26.683Z,21.99
2023-05-09T07:06:26.171Z,21.24
2023-05-09T07:07:26.132Z,21.47
2023-05-09T07:08:26.021Z,21.58
2023-05-09T07:09:26.002Z,21.83
2023-05-09T07:10:25.955Z,22.09
2023-05-09T07:11:25.888Z,22.03
2023-05-09T07:12:25.808Z,22.15
2023-05-09T07:13:25.778Z,22.24
2023-05-09T07:14:25.713Z,22.30
2023-05-09T07:15:39.880Z,22.45
2023-05-09T07:16:25.584Z,22.54
2023-05-09T07:17:25.654Z,22.65
2023-05-09T07:18:25.477Z,22.75
2023-05-09T07:19:25.362Z,22.76
2023-05-09T07:20:25.388Z,22.92
2023-05-09T07:21:25.263Z,23.09
2023-05-09T07:22:25.239Z,23.31
2023-05-09T07:23:25.134Z,23.47
2023-05-09T07:24:25.185Z,23.61
2023-05-09T07:25:25.100Z,23.46
2023-05-09T07:26:26.340Z,23.40
2023-05-09T07:27:24.957Z,23.28
2023-05-09T07:28:24.850Z,23.13
2023-05-09T07:29:24.874Z,23.12
2023-05-09T07:30:24.737Z,23.09
2023-05-09T07:31:24.776Z,23.17
2023-05-09T07:32:24.670Z,23.31
2023-05-09T07:33:24.530Z,23.22
2023-05-09T07:34:25.651Z,23.02
2023-05-09T07:35:26.085Z,23.16
2023-05-09T07:36:25.466Z,23.22
2023-05-09T07:37:24.588Z,23.10
2023-05-09T07:38:25.666Z,23.07
2023-05-09T07:39:24.423Z,23.02
2023-05-09T07:40:24.199Z,22.79
2023-05-09T07:41:24.677Z,22.91
2023-05-09T07:42:23.997Z,23.02
2023-05-09T07:43:23.972Z,23.15
2023-05-09T07:44:24.555Z,23.28
2023-05-09T07:45:24.567Z,23.58
2023-05-09T07:46:23.864Z,23.83
2023-05-09T07:47:23.808Z,23.27
2023-05-09T07:48:23.653Z,23.07
2023-05-09T07:49:23.605Z,23.25
2023-05-09T07:50:23.511Z,23.54
2023-05-09T07:51:23.511Z,23.69
2023-05-09T07:52:23.397Z,23.76
2023-05-09T07:53:23.414Z,23.66
2023-05-09T07:54:23.274Z,23.54
2023-05-09T07:55:23.349Z,23.75
2023-05-09T07:56:23.294Z,23.68
2023-05-09T07:57:23.132Z,23.53
2023-05-09T07:58:23.042Z,23.19
2023-05-09T07:59:22.967Z,23.01
2023-05-09T08:00:23.017Z,23.00
2023-05-09T08:01:22.876Z,22.83
2023-05-09T08:02:22.816Z,23.13
2023-05-09T08:03:23.668Z,23.53
2023-05-09T08:04:22.832Z,23.72
2023-05-09T08:05:24.537Z,23.97
2023-05-09T08:06:23.662Z,24.03
2023-05-09T08:07:23.668Z,24.06
2023-05-09T08:08:23.121Z,24.12
2023-05-09T08:09:22.377Z,24.21
2023-05-09T08:10:22.328Z,24.03
2023-05-09T08:11:22.265Z,23.90
2023-05-09T08:12:23.086Z,23.93
2023-05-09T08:13:22.359Z,24.05
2023-05-09T08:14:22.132Z,24.30
2023-05-09T08:15:21.999Z,24.78
2023-05-09T08:16:22.004Z,25.36
2023-05-09T08:17:21.954Z,25.83
2023-05-09T08:18:21.845Z,26.17
2023-05-09T08:19:21.827Z,26.55
2023-05-09T08:20:21.771Z,26.52
2023-05-09T08:21:22.313Z,26.45
2023-05-09T08:22:21.644Z,26.48
2023-05-09T08:23:21.544Z,26.81
2023-05-09T08:24:21.494Z,26.72
2023-05-09T08:25:21.431Z,26.44
2023-05-09T08:26:21.400Z,25.94
2023-05-09T08:27:21.321Z,25.65
2023-05-09T08:28:21.797Z,24.91
2023-05-09T08:29:21.222Z,24.45
2023-05-09T08:30:21.135Z,24.18
2023-05-09T08:31:21.169Z,24.03
2023-05-09T08:32:21.059Z,23.80
2023-05-09T08:33:20.952Z,23.69
2023-05-09T08:34:20.923Z,23.93
2023-05-09T08:35:20.835Z,24.08
2023-05-09T08:36:20.825Z,24.31
2023-05-09T08:37:20.749Z,24.98
2023-05-09T08:38:20.653Z,25.46
2023-05-09T08:39:20.574Z,25.61
2023-05-09T08:40:20.582Z,25.50
2023-05-09T08:41:20.451Z,25.17
2023-05-09T08:42:20.453Z,24.78
2023-05-09T08:43:20.393Z,24.43
2023-05-09T08:44:20.335Z,24.25
2023-05-09T08:45:20.274Z,23.94
2023-05-09T08:46:20.209Z,23.76
2023-05-09T08:47:20.892Z,23.51
2023-05-09T08:48:20.218Z,23.12
2023-05-09T08:49:20.588Z,22.64
2023-05-09T08:50:19.974Z,22.14
2023-05-09T08:51:19.922Z,21.84
2023-05-09T08:52:19.917Z,21.62
2023-05-09T08:53:19.752Z,21.68
2023-05-09T08:54:22.164Z,21.82
2023-05-09T08:55:19.683Z,21.71
2023-05-09T08:56:19.621Z,21.59
2023-05-09T08:57:19.550Z,21.49
2023-05-09T08:58:19.572Z,21.43
2023-05-09T08:59:19.386Z,21.42
2023-05-09T09:00:21.111Z,21.46
2023-05-09T09:01:19.405Z,21.42
2023-05-09T09:02:19.265Z,21.42
2023-05-09T09:03:19.149Z,21.43
2023-05-09T09:04:20.626Z,21.50
2023-05-09T09:05:39.589Z,21.58
2023-05-09T09:06:19.030Z,21.69
2023-05-09T09:07:18.981Z,21.83
2023-05-09T09:08:18.944Z,22.05
2023-05-09T09:09:18.978Z,22.22
2023-05-09T09:10:18.823Z,22.42
2023-05-09T09:11:18.882Z,22.49
2023-05-09T09:12:18.649Z,22.35
2023-05-09T09:13:18.763Z,22.24
2023-05-09T09:14:18.645Z,22.22
2023-05-09T09:15:19.704Z,22.33
2023-05-09T09:16:18.406Z,22.21
2023-05-09T09:17:18.368Z,22.06
2023-05-09T09:18:18.309Z,21.91
2023-05-09T09:19:18.250Z,21.82
2023-05-09T09:20:18.364Z,21.79
2023-05-09T09:21:18.273Z,21.82
2023-05-09T09:22:18.628Z,21.65
2023-05-09T09:23:17.965Z,21.44
2023-05-09T09:24:19.181Z,21.28
2023-05-09T09:25:17.938Z,21.09
2023-05-09T09:26:17.831Z,20.92
2023-05-09T09:27:17.742Z,20.82
2023-05-09T09:28:19.700Z,20.73
2023-05-09T09:29:24.675Z,20.62
2023-05-09T09:30:19.216Z,20.64
2023-05-09T09:31:21.179Z,20.69
2023-05-09T09:32:31.632Z,20.84
2023-05-09T09:33:30.544Z,21.09
2023-05-09T09:34:17.360Z,21.34
2023-05-09T09:35:17.232Z,21.56
2023-05-09T09:36:17.248Z,21.83
2023-05-09T09:37:17.200Z,22.09
2023-05-09T09:38:18.207Z,22.24
2023-05-09T09:39:17.026Z,22.25
2023-05-09T09:40:17.111Z,22.17
2023-05-09T09:41:16.910Z,22.18
2023-05-09T09:42:16.976Z,22.18
2023-05-09T09:43:16.963Z,22.09
2023-05-09T09:44:17.340Z,21.96
2023-05-09T09:45:16.727Z,22.00
2023-05-09T09:46:16.601Z,22.06
2023-05-09T09:47:16.566Z,22.12
2023-05-09T09:48:17.948Z,22.17
2023-05-09T09:49:16.629Z,22.22
2023-05-09T09:50:18.236Z,22.27
2023-05-09T09:51:16.791Z,22.30
2023-05-09T09:52:16.501Z,22.45
2023-05-09T09:53:17.101Z,22.72
2023-05-09T09:54:17.120Z,22.95
2023-05-09T09:55:16.174Z,23.10
2023-05-09T09:56:16.466Z,23.12
2023-05-09T09:57:16.142Z,23.16
2023-05-09T09:58:16.595Z,23.35
2023-05-09T09:59:15.855Z,23.50
2023-05-09T10:00:16.020Z,23.65
2023-05-09T10:01:15.743Z,23.70
2023-05-09T10:02:15.640Z,23.65
2023-05-09T10:03:15.863Z,23.48
2023-05-09T10:04:15.650Z,23.20
2023-05-09T10:05:15.458Z,23.12
2023-05-09T10:06:15.450Z,23.00
2023-05-09T10:07:15.427Z,22.98
2023-05-09T10:08:15.391Z,22.95
2023-05-09T10:09:15.250Z,23.00
2023-05-09T10:10:16.723Z,23.10
2023-05-09T10:11:15.289Z,23.35
2023-05-09T10:12:15.600Z,23.53
2023-05-09T10:13:15.063Z,23.35
2023-05-09T10:14:14.913Z,23.17
2023-05-09T10:15:15.256Z,23.23
2023-05-09T10:16:14.891Z,23.32
2023-05-09T10:17:14.949Z,23.55
2023-05-09T10:18:14.861Z,23.70
2023-05-09T10:19:14.684Z,23.79
2023-05-09T10:20:14.761Z,23.91
2023-05-09T10:21:14.535Z,23.85
2023-05-09T10:22:14.448Z,23.87
2023-05-09T10:23:14.387Z,24.03
2023-05-09T10:24:15.079Z,24.15
2023-05-09T10:25:14.373Z,24.27
2023-05-09T10:26:14.290Z,24.21
2023-05-09T10:27:14.257Z,24.09
2023-05-09T10:28:14.080Z,24.13
2023-05-09T10:29:14.099Z,24.09
2023-05-09T10:30:14.007Z,23.91
2023-05-09T10:31:14.596Z,23.97
2023-05-09T10:32:13.856Z,24.12
2023-05-09T10:33:13.823Z,24.20
2023-05-09T10:34:13.792Z,24.32
2023-05-09T10:35:14.806Z,24.43
2023-05-09T10:36:13.635Z,24.53
2023-05-09T10:37:13.555Z,24.55
2023-05-09T10:38:13.517Z,24.49
2023-05-09T10:39:13.434Z,24.16
2023-05-09T10:40:14.870Z,24.08
2023-05-09T10:41:14.097Z,24.00
2023-05-09T10:42:13.259Z,23.95
2023-05-09T10:43:13.243Z,24.03
2023-05-09T10:44:13.147Z,24.06
2023-05-09T10:45:13.526Z,24.10
2023-05-09T10:46:13.185Z,24.20
2023-05-09T10:47:13.055Z,24.37
2023-05-09T10:48:12.975Z,24.46
2023-05-09T10:49:12.866Z,24.46
2023-05-09T10:50:12.757Z,24.57
2023-05-09T10:51:12.760Z,24.49
2023-05-09T10:52:12.648Z,24.50
2023-05-09T10:53:12.607Z,24.45
2023-05-09T10:54:12.536Z,24.18
2023-05-09T10:55:12.904Z,24.13
2023-05-09T10:56:12.447Z,24.12
2023-05-09T10:57:12.373Z,24.05
2023-05-09T10:58:13.094Z,24.09
2023-05-09T10:59:12.239Z,24.05
2023-05-09T11:00:12.159Z,24.02
2023-05-09T11:01:12.209Z,23.94
2023-05-09T11:02:12.078Z,23.87
2023-05-09T11:03:12.087Z,23.83
2023-05-09T11:04:11.952Z,23.76
2023-05-09T11:05:12.014Z,23.72
2023-05-09T11:06:13.104Z,23.66
2023-05-09T11:07:14.119Z,23.68
2023-05-09T11:08:17.005Z,23.54
2023-05-09T11:09:18.046Z,23.42
2023-05-09T11:10:20.366Z,23.27
2023-05-09T11:11:22.553Z,23.01
2023-05-09T11:12:14.126Z,22.72
2023-05-09T11:13:12.344Z,22.51
2023-05-09T11:14:13.442Z,22.30
2023-05-09T11:15:17.555Z,22.17
2023-05-09T11:16:13.136Z,22.07
2023-05-09T11:17:11.386Z,22.07
2023-05-09T11:18:11.358Z,22.06
2023-05-09T11:19:11.147Z,22.02
2023-05-09T11:20:13.824Z,21.86
2023-05-09T11:21:10.982Z,21.88
2023-05-09T11:22:11.560Z,21.86
2023-05-09T11:23:11.040Z,21.82
2023-05-09T11:24:10.753Z,21.79
2023-05-09T11:25:10.861Z,21.67
2023-05-09T11:26:10.729Z,21.50
2023-05-09T11:27:10.543Z,21.44
2023-05-09T11:28:10.572Z,21.40
2023-05-09T11:29:10.458Z,21.35
2023-05-09T11:30:10.452Z,21.34
2023-05-09T11:31:10.373Z,21.35
2023-05-09T11:32:10.349Z,21.42
2023-05-09T11:33:10.307Z,21.46
2023-05-09T11:34:10.150Z,21.49
2023-05-09T11:35:10.301Z,21.54
2023-05-09T11:36:10.091Z,21.49
2023-05-09T11:37:10.130Z,21.47
2023-05-09T11:38:09.882Z,21.47
2023-05-09T11:39:09.920Z,21.50
2023-05-09T11:40:11.366Z,21.50
2023-05-09T11:41:11.597Z,21.47
2023-05-09T11:42:09.653Z,21.46
2023-05-09T11:43:09.717Z,21.44
2023-05-09T11:44:09.696Z,21.46
2023-05-09T11:45:09.502Z,21.46
2023-05-09T11:46:09.513Z,21.47
2023-05-09T11:47:09.372Z,21.56
2023-05-09T11:48:09.342Z,21.62
2023-05-09T11:49:11.426Z,21.72
2023-05-09T11:50:09.226Z,21.79
2023-05-09T11:51:09.153Z,21.83
2023-05-09T11:52:09.088Z,21.83
2023-05-09T11:53:09.065Z,21.77
2023-05-09T11:54:09.920Z,21.79
2023-05-09T11:55:12.025Z,21.72
2023-05-09T11:56:08.837Z,21.71
2023-05-09T11:57:08.737Z,21.75
2023-05-09T11:58:08.725Z,21.77
2023-05-09T11:59:08.632Z,21.79
2023-05-09T12:00:08.643Z,21.71
2023-05-09T12:01:10.038Z,21.68
2023-05-09T12:02:08.519Z,21.65
2023-05-09T12:03:08.502Z,21.62
2023-05-09T12:04:08.921Z,21.62
2023-05-09T12:05:08.282Z,21.67
2023-05-09T12:06:08.222Z,21.72
2023-05-09T12:07:08.167Z,21.79
2023-05-09T12:08:09.058Z,21.83
2023-05-09T12:09:08.014Z,21.72
2023-05-09T12:10:08.014Z,21.65
2023-05-09T12:11:07.936Z,21.65
2023-05-09T12:12:07.895Z,21.58
2023-05-09T12:13:07.893Z,21.53
2023-05-09T12:14:07.781Z,21.47
2023-05-09T12:15:07.672Z,21.47
2023-05-09T12:16:07.717Z,21.54
2023-05-09T12:17:07.638Z,21.62
2023-05-09T12:18:07.588Z,21.82
2023-05-09T12:19:07.488Z,22.02
2023-05-09T12:20:07.447Z,22.18
2023-05-09T12:21:07.389Z,22.30
2023-05-09T12:22:07.256Z,22.33
2023-05-09T12:23:07.217Z,22.39
2023-05-09T12:24:07.173Z,22.37
2023-05-09T12:25:07.126Z,22.28
2023-05-09T12:26:07.057Z,22.28
2023-05-09T12:27:06.977Z,22.27
2023-05-09T12:28:08.607Z,22.27
2023-05-09T12:29:06.933Z,22.31
2023-05-09T12:30:06.856Z,22.35
2023-05-09T12:31:06.878Z,22.33
2023-05-09T12:32:06.768Z,22.28
2023-05-09T12:33:06.649Z,22.17
2023-05-09T12:34:07.062Z,22.09
2023-05-09T12:35:08.576Z,22.05
2023-05-09T12:36:06.539Z,22.00
2023-05-09T12:37:06.386Z,21.91
2023-05-09T12:38:06.344Z,21.84
2023-05-09T12:39:06.281Z,21.80
2023-05-09T12:40:06.245Z,21.82
2023-05-09T12:41:06.772Z,21.86
2023-05-09T12:42:06.064Z,21.96
2023-05-09T12:43:06.154Z,22.03
2023-05-09T12:44:05.939Z,22.14
2023-05-09T12:45:05.896Z,22.21
2023-05-09T12:46:05.940Z,22.27
2023-05-09T12:47:05.795Z,22.28
2023-05-09T12:48:07.136Z,22.21
2023-05-09T12:49:05.712Z,22.18
2023-05-09T12:50:06.118Z,22.15
2023-05-09T12:51:05.521Z,22.07
2023-05-09T12:52:07.199Z,22.06